Time;durP1;ratioP1;P1;durP2;ratioP2;P2;SDS_P1;SDS_P2;PMS_P1;PMS_P2;Temp;Humidity;BMP_temperature;BMP_pressure;BME280_temperature;BME280_humidity;BME280_pressure;Samples;Min_cycle;Max_cycle;Signal;HPM_P1;HPM_P2
2021/11/23 08:00:51;;;;;;;7.35;5.50;;;14.10;99.90;;;;;;4112850;27;20797;-68
2021/11/23 08:02:54;;;;;;;10.40;6.00;;;17.30;99.90;;;;;;4105906;28;60658;-65
2021/11/23 08:04:56;;;;;;;9.18;5.82;;;18.00;99.90;;;;;;4161394;28;20287;-65
2021/11/23 08:06:58;;;;;;;5.82;5.05;;;18.30;99.90;;;;;;4132978;28;20238;-65
2021/11/23 08:09:01;;;;;;;8.18;5.50;;;18.70;99.90;;;;;;4141863;28;20228;-66
2021/11/23 08:11:04;;;;;;;7.32;5.07;;;18.90;99.90;;;;;;4170113;28;21212;-67
2021/11/23 08:13:06;;;;;;;8.10;5.03;;;19.20;99.90;;;;;;4161356;28;20656;-66
2021/11/23 08:15:10;;;;;;;9.80;5.20;;;19.40;99.90;;;;;;4147816;28;20231;-65
2021/11/23 08:17:13;;;;;;;8.27;5.07;;;19.60;99.90;;;;;;4143203;28;20272;-66
2021/11/23 08:19:15;;;;;;;8.02;4.65;;;19.80;99.90;;;;;;4164561;28;20224;-66
2021/11/23 08:21:18;;;;;;;5.30;4.72;;;19.90;99.90;;;;;;4165823;28;20223;-66
2021/11/23 08:23:20;;;;;;;6.80;4.82;;;20.00;99.90;;;;;;4163580;28;20212;-66
2021/11/23 08:25:23;;;;;;;8.82;5.00;;;20.00;99.90;;;;;;4164287;28;20224;-67
2021/11/23 08:27:25;;;;;;;8.82;4.80;;;20.20;99.90;;;;;;4164441;28;20228;-66
2021/11/23 08:29:28;;;;;;;6.82;4.93;;;20.20;99.90;;;;;;4161429;28;20243;-67
2021/11/23 08:31:30;;;;;;;7.38;4.75;;;20.30;99.90;;;;;;4139055;28;20285;-67
2021/11/23 08:33:34;;;;;;;9.20;5.07;;;20.40;99.90;;;;;;4169789;28;20212;-67
2021/11/23 08:35:36;;;;;;;6.22;4.70;;;20.40;99.90;;;;;;4173015;28;20668;-66
2021/11/23 08:37:39;;;;;;;7.65;4.47;;;20.40;99.90;;;;;;4170209;28;20227;-66
2021/11/23 08:39:41;;;;;;;6.60;4.57;;;20.40;99.90;;;;;;4170598;28;20643;-65
2021/11/23 08:41:43;;;;;;;6.05;4.72;;;20.50;99.90;;;;;;4140274;28;20235;-65
2021/11/23 08:43:46;;;;;;;7.97;5.10;;;20.50;99.90;;;;;;4165928;28;20257;-67
2021/11/23 08:45:49;;;;;;;8.68;5.00;;;20.60;99.90;;;;;;4169696;28;20732;-67
2021/11/23 08:47:51;;;;;;;7.63;5.05;;;20.80;99.90;;;;;;4171283;28;20224;-66
2021/11/23 08:49:56;;;;;;;5.68;4.57;;;20.80;99.90;;;;;;4166805;28;20208;-67
2021/11/23 08:51:58;;;;;;;7.78;5.03;;;20.80;99.90;;;;;;4170590;28;20294;-67
2021/11/23 08:54:01;;;;;;;6.50;4.35;;;20.80;99.90;;;;;;4165397;28;20225;-66
2021/11/23 08:56:05;;;;;;;5.35;4.50;;;20.80;99.90;;;;;;4168998;28;20212;-67
2021/11/23 08:58:09;;;;;;;8.98;4.82;;;20.80;99.90;;;;;;4166635;28;20282;-66
2021/11/23 09:00:25;;;;;;;6.32;4.95;;;20.90;99.90;;;;;;4165474;28;20289;-68
2021/11/23 09:02:27;;;;;;;5.47;4.90;;;21.00;99.90;;;;;;4168233;28;20208;-66
2021/11/23 09:04:30;;;;;;;6.53;4.57;;;21.00;99.90;;;;;;4169504;28;20613;-67
2021/11/23 09:06:37;;;;;;;6.30;4.40;;;21.00;99.90;;;;;;4164164;28;20220;-67
2021/11/23 09:08:46;;;;;;;5.68;4.32;;;21.00;99.90;;;;;;4169632;28;20558;-68
2021/11/23 09:10:48;;;;;;;6.40;4.78;;;21.00;99.90;;;;;;4164647;28;20217;-67
2021/11/23 09:12:52;;;;;;;7.50;4.78;;;21.10;99.90;;;;;;4157024;28;20220;-67
2021/11/23 09:14:54;;;;;;;6.72;4.55;;;21.00;99.90;;;;;;4159815;28;20212;-67
2021/11/23 09:16:57;;;;;;;5.95;4.20;;;21.00;99.90;;;;;;4155372;28;20217;-68
2021/11/23 09:19:00;;;;;;;6.63;4.88;;;21.00;99.90;;;;;;4155563;28;20212;-66
2021/11/23 09:21:02;;;;;;;5.15;4.63;;;21.10;99.90;;;;;;4159027;28;20220;-66
2021/11/23 09:24:18;;;;;;;13.52;5.00;;;21.20;99.90;;;;;;4214847;27;20847;-82
2021/11/23 09:26:20;;;;;;;16.15;5.63;;;22.10;99.90;;;;;;4216835;28;20222;-79
2021/11/23 09:28:23;;;;;;;16.48;5.53;;;21.70;99.90;;;;;;4212299;28;20222;-78
2021/11/23 09:30:25;;;;;;;10.00;5.47;;;21.40;99.90;;;;;;4214190;28;20259;-80
2021/11/23 09:32:27;;;;;;;8.95;4.95;;;21.40;99.90;;;;;;4207179;28;20812;-77
2021/11/23 09:34:30;;;;;;;9.07;5.07;;;21.40;99.90;;;;;;4211149;28;20250;-75
2021/11/23 09:36:32;;;;;;;9.13;5.25;;;21.30;99.90;;;;;;4206836;28;20222;-76
2021/11/23 09:38:36;;;;;;;9.05;5.03;;;21.30;99.90;;;;;;4209124;28;20210;-82
2021/11/23 09:40:41;;;;;;;7.55;4.47;;;21.20;99.90;;;;;;4206240;28;20607;-82
2021/11/23 09:42:43;;;;;;;10.40;4.85;;;21.20;99.90;;;;;;4169086;27;20261;-80
2021/11/23 09:44:45;;;;;;;23.35;5.95;;;21.30;99.90;;;;;;4158047;28;20216;-75
2021/11/23 09:46:48;;;;;;;36.25;6.55;;;21.20;99.90;;;;;;4159236;28;20271;-75
2021/11/23 09:48:51;;;;;;;273.45;25.77;;;21.20;99.90;;;;;;4119588;28;20235;-78
2021/11/23 09:50:54;;;;;;;20.25;5.15;;;21.40;99.90;;;;;;4141586;28;20237;-76
2021/11/23 09:52:57;;;;;;;12.55;4.80;;;21.40;99.90;;;;;;4155853;28;20259;-78
2021/11/23 09:54:59;;;;;;;15.98;5.38;;;21.40;99.90;;;;;;4156023;28;21049;-77
2021/11/23 09:57:03;;;;;;;13.50;5.25;;;21.40;99.90;;;;;;4158581;28;20262;-77
2021/11/23 09:59:06;;;;;;;15.20;5.13;;;21.30;99.90;;;;;;4154589;28;20267;-79
2021/11/23 10:01:11;;;;;;;10.85;4.75;;;21.30;99.90;;;;;;4154306;28;20258;-78
2021/11/23 10:03:16;;;;;;;10.93;5.07;;;21.40;99.90;;;;;;4155370;28;20248;-78
2021/11/23 10:05:19;;;;;;;14.05;4.85;;;21.30;99.90;;;;;;4160247;28;20270;-78
2021/11/23 10:07:21;;;;;;;18.88;4.50;;;21.30;99.90;;;;;;4165499;28;20643;-78
2021/11/23 10:09:33;;;;;;;8.93;4.43;;;21.30;99.90;;;;;;4159786;28;20215;-77
2021/11/23 10:11:35;;;;;;;9.30;4.60;;;21.30;99.90;;;;;;4161743;28;20722;-78
2021/11/23 10:13:46;;;;;;;12.80;4.75;;;21.30;99.90;;;;;;4124543;28;20241;-78
2021/11/23 10:15:50;;;;;;;5.97;4.45;;;21.30;99.90;;;;;;4142078;28;20221;-77
2021/11/23 10:17:54;;;;;;;10.35;4.72;;;21.40;99.90;;;;;;4142712;28;20267;-79
2021/11/23 10:19:57;;;;;;;15.65;5.35;;;21.40;99.90;;;;;;4115951;28;20217;-78
2021/11/23 10:21:59;;;;;;;8.07;4.65;;;21.50;99.90;;;;;;4141220;28;20225;-80
2021/11/23 10:24:02;;;;;;;7.72;4.18;;;21.40;99.90;;;;;;4142429;28;20286;-80
2021/11/23 10:26:08;;;;;;;8.38;4.80;;;21.50;99.90;;;;;;4140288;28;20637;-78
2021/11/23 10:28:11;;;;;;;9.88;4.53;;;21.40;99.90;;;;;;4147052;28;20279;-80
2021/11/23 10:30:15;;;;;;;8.32;4.25;;;21.50;99.90;;;;;;4145098;28;20224;-78
2021/11/23 10:32:17;;;;;;;10.05;4.75;;;21.40;99.90;;;;;;4148541;28;20216;-78
2021/11/23 10:34:20;;;;;;;11.07;4.15;;;21.50;99.90;;;;;;4141264;28;20256;-78
2021/11/23 10:36:22;;;;;;;8.05;4.75;;;21.50;99.90;;;;;;4138000;28;20546;-79
2021/11/23 10:38:25;;;;;;;6.47;4.95;;;21.50;99.90;;;;;;4135687;28;20275;-78
2021/11/23 10:40:32;;;;;;;7.25;4.47;;;21.60;99.90;;;;;;4135165;28;20691;-78
2021/11/23 10:42:34;;;;;;;8.75;4.28;;;21.50;99.90;;;;;;4136183;28;20647;-78
2021/11/23 10:44:36;;;;;;;8.90;4.80;;;21.60;99.90;;;;;;4134095;28;20284;-77
2021/11/23 10:46:40;;;;;;;9.20;4.22;;;21.50;99.90;;;;;;4132981;28;20260;-78
2021/11/23 10:48:43;;;;;;;7.25;4.90;;;21.60;99.90;;;;;;4131890;28;20217;-79
2021/11/23 10:50:59;;;;;;;7.07;4.28;;;21.60;99.90;;;;;;4134082;28;20714;-80
2021/11/23 10:53:07;;;;;;;8.52;5.70;;;21.70;99.90;;;;;;4126426;28;20225;-78
2021/11/23 10:55:27;;;;;;;8.32;4.50;;;21.70;99.90;;;;;;4131013;28;20266;-79
2021/11/23 10:57:40;;;;;;;8.48;5.38;;;21.70;99.90;;;;;;4132163;28;20279;-80
2021/11/23 10:59:42;;;;;;;7.63;4.72;;;21.70;99.90;;;;;;4129934;28;20236;-80
2021/11/23 11:01:46;;;;;;;5.35;4.47;;;21.60;99.90;;;;;;4131246;28;20686;-80
2021/11/23 11:03:49;;;;;;;6.65;4.00;;;21.70;99.90;;;;;;4128781;28;20292;-79
2021/11/23 11:05:52;;;;;;;5.70;4.40;;;21.80;99.90;;;;;;4129070;28;20283;-77
2021/11/23 11:07:56;;;;;;;9.05;4.57;;;21.80;99.90;;;;;;4130347;28;20221;-77
2021/11/23 11:10:00;;;;;;;7.28;4.20;;;21.90;99.90;;;;;;4127129;28;20221;-77
2021/11/23 11:12:02;;;;;;;8.65;4.30;;;21.90;99.90;;;;;;4129333;28;20222;-77
2021/11/23 11:14:06;;;;;;;22.63;6.03;;;21.90;99.90;;;;;;4129040;28;20218;-78
2021/11/23 11:16:11;;;;;;;59.25;8.05;;;21.80;99.90;;;;;;4128539;28;20230;-78
2021/11/23 11:18:17;;;;;;;27.17;6.40;;;21.80;99.90;;;;;;4131349;28;20221;-75
2021/11/23 11:20:34;;;;;;;39.42;6.72;;;21.80;99.90;;;;;;4131597;28;20345;-76
2021/11/23 11:22:51;;;;;;;66.03;8.30;;;21.90;99.90;;;;;;4129440;28;20280;-76
2021/11/23 11:25:06;;;;;;;47.60;7.40;;;21.90;99.90;;;;;;4130778;28;20732;-77
2021/11/23 11:27:41;;;;;;;43.92;6.82;;;22.00;99.90;;;;;;4128737;28;20218;-75
2021/11/23 11:29:44;;;;;;;27.58;6.70;;;22.00;99.90;;;;;;4127751;28;20209;-76
2021/11/23 11:31:47;;;;;;;32.70;6.32;;;22.00;99.90;;;;;;4127636;28;20292;-75
2021/11/23 11:33:51;;;;;;;24.98;5.72;;;22.00;99.90;;;;;;4126604;28;20237;-74
2021/11/23 11:35:55;;;;;;;19.63;5.28;;;22.00;99.90;;;;;;4127452;28;20214;-74
2021/11/23 11:37:59;;;;;;;20.40;4.82;;;22.10;99.90;;;;;;4127427;28;20650;-75
2021/11/23 11:40:03;;;;;;;16.25;4.88;;;22.10;99.90;;;;;;4123855;28;20297;-76
2021/11/23 11:42:06;;;;;;;16.25;5.03;;;22.10;99.90;;;;;;4127696;28;20210;-75
2021/11/23 11:44:12;;;;;;;14.38;4.65;;;22.20;99.90;;;;;;4128260;28;20284;-76
2021/11/23 11:46:34;;;;;;;11.52;4.65;;;22.20;99.90;;;;;;4126717;28;20264;-75
2021/11/23 11:48:47;;;;;;;9.18;4.15;;;22.20;99.90;;;;;;4128301;28;20226;-77
2021/11/23 11:50:59;;;;;;;15.40;4.32;;;22.20;99.90;;;;;;4128538;28;20206;-78
2021/11/23 11:53:20;;;;;;;11.82;4.53;;;22.20;99.90;;;;;;4128520;28;20628;-76
2021/11/23 11:55:25;;;;;;;11.15;4.55;;;22.20;99.90;;;;;;4108226;28;20210;-75
2021/11/23 11:57:29;;;;;;;14.05;4.60;;;22.20;99.90;;;;;;4105641;28;20272;-75
2021/11/23 11:59:34;;;;;;;10.52;4.50;;;22.20;99.90;;;;;;4114700;28;20728;-76
2021/11/23 12:01:38;;;;;;;11.55;4.43;;;22.20;99.90;;;;;;4127054;28;20643;-76
2021/11/23 12:03:41;;;;;;;9.10;4.72;;;22.30;99.90;;;;;;4126476;28;20222;-76
2021/11/23 12:05:56;;;;;;;13.57;4.15;;;22.20;99.90;;;;;;4128014;28;20201;-76
2021/11/23 12:08:00;;;;;;;9.93;4.60;;;22.20;99.90;;;;;;4128808;28;20229;-78
2021/11/23 12:10:17;;;;;;;10.18;3.92;;;22.20;99.90;;;;;;4106880;28;21026;-78
2021/11/23 12:12:52;;;;;;;8.95;4.13;;;22.30;99.90;;;;;;4130698;28;20557;-79
2021/11/23 12:15:07;;;;;;;12.27;4.50;;;22.30;99.90;;;;;;4129385;28;20625;-78
2021/11/23 12:17:23;;;;;;;16.88;4.47;;;22.30;99.90;;;;;;4131099;28;20222;-78
2021/11/23 12:19:36;;;;;;;12.75;3.75;;;22.20;99.90;;;;;;4128698;28;20248;-79
2021/11/23 12:21:52;;;;;;;10.68;4.13;;;22.20;99.90;;;;;;4130725;28;20222;-78
2021/11/23 12:23:57;;;;;;;9.15;4.40;;;22.30;99.90;;;;;;4126736;28;20739;-77
2021/11/23 12:26:02;;;;;;;7.40;4.28;;;22.30;99.90;;;;;;4128017;28;20311;-77
2021/11/23 12:28:09;;;;;;;12.88;4.53;;;22.30;99.90;;;;;;4124932;28;20295;-78
2021/11/23 12:30:12;;;;;;;7.88;4.18;;;22.20;99.90;;;;;;4127889;28;20800;-77
2021/11/23 12:32:16;;;;;;;12.68;4.47;;;22.30;99.90;;;;;;4134766;28;20355;-78
2021/11/23 12:34:19;;;;;;;12.75;4.43;;;22.30;99.90;;;;;;4131427;28;20213;-78
2021/11/23 12:36:24;;;;;;;12.70;4.30;;;22.30;99.90;;;;;;4129293;28;20292;-79
2021/11/23 12:38:30;;;;;;;8.85;3.95;;;22.40;99.90;;;;;;4132802;28;20230;-78
2021/11/23 12:40:33;;;;;;;9.93;3.88;;;22.30;99.90;;;;;;4134900;28;20268;-79
2021/11/23 12:42:40;;;;;;;8.13;4.10;;;22.40;99.90;;;;;;4132977;28;20277;-79
2021/11/23 12:44:46;;;;;;;41.58;6.00;;;22.40;99.90;;;;;;4130555;28;20295;-77
2021/11/23 12:46:58;;;;;;;25.48;4.57;;;22.30;99.90;;;;;;4131329;28;20208;-78
2021/11/23 12:49:01;;;;;;;11.27;4.63;;;22.40;99.90;;;;;;4129266;28;20261;-79
2021/11/23 12:51:22;;;;;;;7.18;3.72;;;22.40;99.90;;;;;;4132785;28;20222;-78
2021/11/23 12:53:26;;;;;;;8.13;3.95;;;22.50;99.90;;;;;;4131764;28;20244;-78
2021/11/23 12:55:28;;;;;;;7.90;4.28;;;22.60;99.90;;;;;;4129223;28;20268;-77
2021/11/23 12:57:32;;;;;;;12.70;4.57;;;22.50;99.90;;;;;;4130133;28;20321;-78
2021/11/23 12:59:43;;;;;;;9.95;4.18;;;22.50;99.90;;;;;;4135061;28;20221;-77
2021/11/23 13:01:47;;;;;;;6.13;3.50;;;22.50;99.90;;;;;;4133419;28;20268;-75
2021/11/23 13:03:53;;;;;;;11.02;3.90;;;22.50;99.90;;;;;;4131274;28;20948;-78
2021/11/23 13:05:55;;;;;;;5.63;3.40;;;22.50;99.90;;;;;;4126228;28;20236;-78
2021/11/23 13:08:05;;;;;;;7.18;3.70;;;22.50;99.90;;;;;;4130610;28;20295;-78
2021/11/23 13:10:12;;;;;;;8.43;3.75;;;22.50;99.90;;;;;;4128428;28;20225;-78
2021/11/23 13:12:17;;;;;;;8.88;4.15;;;22.60;99.90;;;;;;4129331;28;20637;-74
2021/11/23 13:14:21;;;;;;;8.10;3.92;;;22.60;99.90;;;;;;4129007;28;20218;-74
2021/11/23 13:16:23;;;;;;;7.10;3.97;;;22.60;99.90;;;;;;4126013;28;20633;-76
2021/11/23 13:18:29;;;;;;;9.93;3.80;;;22.60;99.90;;;;;;4126955;28;20260;-75
2021/11/23 13:20:38;;;;;;;8.15;4.03;;;22.60;99.90;;;;;;4127744;28;20221;-75
2021/11/23 13:22:42;;;;;;;8.60;4.00;;;22.60;99.90;;;;;;4132128;28;20283;-74
2021/11/23 13:24:45;;;;;;;6.85;4.15;;;22.60;99.90;;;;;;4143087;28;20278;-76
2021/11/23 13:26:47;;;;;;;7.05;3.80;;;22.60;99.90;;;;;;4141464;28;20295;-76
2021/11/23 13:29:01;;;;;;;11.77;4.20;;;22.60;99.90;;;;;;4142273;28;20225;-76
2021/11/23 13:31:06;;;;;;;7.30;4.70;;;22.60;99.90;;;;;;4144534;28;20264;-78
2021/11/23 13:33:11;;;;;;;9.85;3.60;;;22.60;99.90;;;;;;4129316;28;20221;-77
2021/11/23 13:35:17;;;;;;;6.75;3.78;;;22.60;99.90;;;;;;4155936;28;20216;-78
2021/11/23 13:37:19;;;;;;;8.10;3.58;;;22.50;99.90;;;;;;4151000;28;20267;-78
2021/11/23 13:39:25;;;;;;;8.70;3.53;;;22.50;99.90;;;;;;4156738;28;21058;-76
2021/11/23 13:41:30;;;;;;;9.10;3.63;;;22.50;99.90;;;;;;4109707;28;20287;-77
2021/11/23 13:43:39;;;;;;;10.35;3.90;;;22.50;99.90;;;;;;4142039;28;20271;-80
2021/11/23 13:45:57;;;;;;;9.38;4.45;;;22.50;99.90;;;;;;4141970;28;20249;-78
2021/11/23 13:48:13;;;;;;;8.98;3.90;;;22.50;99.90;;;;;;4140516;28;20221;-78
2021/11/23 13:50:16;;;;;;;10.57;3.80;;;22.40;99.90;;;;;;4141567;28;20217;-77
2021/11/23 13:52:21;;;;;;;10.38;3.85;;;22.40;99.90;;;;;;4137879;28;20255;-78
2021/11/23 13:54:23;;;;;;;7.60;3.80;;;22.40;99.90;;;;;;4143120;28;20214;-79
2021/11/23 13:56:28;;;;;;;8.85;4.05;;;22.30;99.90;;;;;;4142619;28;20218;-77
2021/11/23 13:58:31;;;;;;;11.52;4.22;;;22.30;99.90;;;;;;4139320;28;20287;-76
2021/11/23 14:00:33;;;;;;;7.60;4.40;;;22.30;99.90;;;;;;4140107;28;20225;-75
2021/11/23 14:02:47;;;;;;;8.32;3.85;;;22.30;99.90;;;;;;4138477;28;20217;-74
2021/11/23 14:04:52;;;;;;;7.40;3.63;;;22.20;99.90;;;;;;4142375;28;20220;-74
2021/11/23 14:07:11;;;;;;;8.52;3.83;;;22.20;99.90;;;;;;4139015;28;20269;-75
2021/11/23 14:09:13;;;;;;;7.38;3.70;;;22.20;99.90;;;;;;4141257;28;20213;-73
2021/11/23 14:11:16;;;;;;;7.45;3.67;;;22.20;99.90;;;;;;4141083;28;20351;-74
2021/11/23 14:13:20;;;;;;;8.50;4.10;;;22.20;99.90;;;;;;4133686;28;20565;-73
2021/11/23 14:15:23;;;;;;;12.48;4.72;;;22.20;99.90;;;;;;4133396;28;20213;-72
2021/11/23 14:18:02;;;;;;;13.05;4.45;;;22.20;99.90;;;;;;4114838;28;20233;-72
2021/11/23 14:20:09;;;;;;;10.25;3.83;;;22.20;99.90;;;;;;4157831;28;20341;-73
2021/11/23 14:22:12;;;;;;;9.55;4.18;;;22.20;99.90;;;;;;4159689;28;20220;-74
2021/11/23 14:24:14;;;;;;;7.53;4.28;;;22.20;99.90;;;;;;4159546;28;21062;-74
2021/11/23 14:26:20;;;;;;;7.80;3.63;;;22.20;99.90;;;;;;4159450;28;20743;-74
2021/11/23 14:28:22;;;;;;;6.57;3.80;;;22.20;99.90;;;;;;4155210;28;20774;-74
2021/11/23 14:30:25;;;;;;;7.55;3.83;;;22.20;99.90;;;;;;4160799;28;20681;-74
2021/11/23 14:32:27;;;;;;;6.90;3.92;;;22.20;99.90;;;;;;4161715;28;20217;-73
2021/11/23 14:34:30;;;;;;;8.25;4.00;;;22.20;99.90;;;;;;4156340;28;20268;-73
2021/11/23 14:36:36;;;;;;;8.93;4.35;;;22.20;99.90;;;;;;4156476;28;20224;-74
2021/11/23 14:38:39;;;;;;;6.10;3.50;;;22.20;99.90;;;;;;4157079;28;20681;-75
2021/11/23 14:40:41;;;;;;;9.05;3.67;;;22.20;99.90;;;;;;4157777;28;20212;-73
2021/11/23 14:42:43;;;;;;;7.03;3.75;;;22.20;99.90;;;;;;4160447;28;20225;-74
2021/11/23 14:44:46;;;;;;;8.00;4.25;;;22.20;99.90;;;;;;4157200;28;20220;-75
2021/11/23 14:46:52;;;;;;;8.82;4.47;;;22.20;99.90;;;;;;4158849;28;20762;-75
2021/11/23 14:48:55;;;;;;;7.25;3.80;;;22.20;99.90;;;;;;4158753;28;20274;-75
2021/11/23 14:50:58;;;;;;;7.30;3.85;;;22.20;99.90;;;;;;4157872;28;20603;-75
2021/11/23 14:53:02;;;;;;;7.20;3.40;;;22.20;99.90;;;;;;4158623;28;20622;-74
2021/11/23 14:55:06;;;;;;;7.63;4.15;;;22.20;99.90;;;;;;4159505;28;20267;-74
2021/11/23 14:57:09;;;;;;;7.18;3.40;;;22.20;99.90;;;;;;4158257;28;20216;-73
2021/11/23 14:59:11;;;;;;;5.80;3.50;;;22.20;99.90;;;;;;4123446;28;20349;-72
2021/11/23 15:01:14;;;;;;;5.88;3.65;;;22.20;99.90;;;;;;4100257;28;20242;-74
2021/11/23 15:03:16;;;;;;;10.80;4.00;;;22.30;99.90;;;;;;4145900;28;20228;-74
2021/11/23 15:05:19;;;;;;;9.50;3.97;;;22.30;99.90;;;;;;4141636;28;20283;-73
2021/11/23 15:07:22;;;;;;;8.73;4.03;;;22.20;99.90;;;;;;4142816;28;20341;-74
2021/11/23 15:09:25;;;;;;;7.47;3.97;;;22.10;99.90;;;;;;4138943;28;20209;-73
2021/11/23 15:11:28;;;;;;;7.15;3.97;;;22.10;99.90;;;;;;4142355;28;20625;-74
2021/11/23 15:13:30;;;;;;;9.23;4.18;;;22.20;99.90;;;;;;4143065;28;20264;-74
2021/11/23 15:15:33;;;;;;;99.68;8.82;;;22.10;99.90;;;;;;4106424;28;20225;-77
2021/11/23 15:17:35;;;;;;;22.77;4.25;;;22.20;99.90;;;;;;4139650;28;20221;-76
2021/11/23 15:19:38;;;;;;;30.27;5.43;;;22.30;99.90;;;;;;4140037;28;20866;-74
2021/11/23 15:21:43;;;;;;;40.30;5.85;;;22.30;99.90;;;;;;4137603;28;20275;-81
2021/11/23 15:23:46;;;;;;;14.77;4.63;;;22.30;99.90;;;;;;4135338;28;20230;-78
2021/11/23 15:26:09;;;;;;;17.17;5.95;;;22.30;99.90;;;;;;4137975;28;20295;-75
2021/11/23 15:28:11;;;;;;;16.05;5.60;;;22.40;99.90;;;;;;4141716;28;20226;-77
2021/11/23 15:30:15;;;;;;;12.73;4.38;;;22.50;99.90;;;;;;4139353;28;20217;-76
2021/11/23 15:32:17;;;;;;;28.50;5.45;;;22.60;99.90;;;;;;4140836;28;21732;-76
2021/11/23 15:34:20;;;;;;;25.73;4.93;;;22.50;99.90;;;;;;4140486;28;20731;-77
2021/11/23 15:36:22;;;;;;;27.45;5.88;;;22.60;99.90;;;;;;4115498;28;20225;-80
2021/11/23 15:38:25;;;;;;;35.70;6.07;;;22.60;99.90;;;;;;4117688;28;20278;-79
2021/11/23 15:40:30;;;;;;;12.82;4.28;;;22.60;99.90;;;;;;4118340;28;20275;-77
2021/11/23 15:42:34;;;;;;;20.52;4.70;;;22.70;99.90;;;;;;4165232;28;20207;-80
2021/11/23 15:44:37;;;;;;;23.42;6.10;;;22.70;99.90;;;;;;4170667;28;21962;-78
2021/11/23 15:46:39;;;;;;;13.40;4.60;;;22.60;99.90;;;;;;4172609;28;20365;-80
2021/11/23 15:48:42;;;;;;;14.05;5.40;;;22.50;99.90;;;;;;4178154;28;20212;-83
2021/11/23 15:50:44;;;;;;;10.93;4.68;;;22.50;99.90;;;;;;4174729;28;20258;-80
2021/11/23 15:52:47;;;;;;;17.05;4.53;;;22.50;99.90;;;;;;4178556;28;20265;-81
2021/11/23 15:54:49;;;;;;;15.60;5.40;;;22.50;99.90;;;;;;4177073;28;20298;-76
2021/11/23 15:56:53;;;;;;;10.07;4.95;;;22.40;99.90;;;;;;4178104;28;20234;-77
2021/11/23 15:58:57;;;;;;;14.63;5.28;;;22.40;99.90;;;;;;4177122;28;20208;-81
2021/11/23 16:01:01;;;;;;;14.68;5.43;;;22.40;99.90;;;;;;4178004;28;20261;-80
2021/11/23 16:03:03;;;;;;;8.95;4.47;;;22.30;99.90;;;;;;4177854;28;20264;-76
2021/11/23 16:05:06;;;;;;;10.73;5.20;;;22.30;99.90;;;;;;4173715;28;20628;-79
2021/11/23 16:07:09;;;;;;;11.68;4.78;;;22.30;99.90;;;;;;4175183;28;20643;-76
2021/11/23 16:09:11;;;;;;;11.90;5.00;;;22.30;99.90;;;;;;4179033;28;20215;-76
2021/11/23 16:11:13;;;;;;;8.20;4.60;;;22.30;99.90;;;;;;4178648;28;20220;-75
2021/11/23 16:13:16;;;;;;;10.07;4.47;;;22.30;99.90;;;;;;4173390;28;20606;-78
2021/11/23 16:15:20;;;;;;;9.57;4.80;;;22.30;99.90;;;;;;4175512;28;20220;-80
2021/11/23 16:17:22;;;;;;;11.02;5.07;;;22.20;99.90;;;;;;4176319;28;20257;-81
2021/11/23 16:19:26;;;;;;;9.30;4.90;;;22.20;99.90;;;;;;4176106;28;20212;-78
2021/11/23 16:21:28;;;;;;;9.82;4.78;;;22.20;99.90;;;;;;4177616;28;20220;-75
2021/11/23 16:23:31;;;;;;;22.08;7.30;;;22.20;99.90;;;;;;4173405;28;20708;-76
2021/11/23 16:25:34;;;;;;;12.18;5.78;;;22.10;99.90;;;;;;4177440;28;20212;-75
2021/11/23 16:27:38;;;;;;;17.42;5.68;;;22.10;99.90;;;;;;4177189;28;20696;-74
2021/11/23 16:29:50;;;;;;;12.98;5.45;;;22.10;99.90;;;;;;4175152;28;20289;-73
2021/11/23 16:31:54;;;;;;;12.52;5.20;;;22.10;99.90;;;;;;4171824;28;20792;-75
2021/11/23 16:33:56;;;;;;;8.45;4.65;;;22.10;99.90;;;;;;4173161;28;20220;-73
2021/11/23 16:35:59;;;;;;;11.60;5.55;;;22.10;99.90;;;;;;4172902;28;20370;-77
2021/11/23 16:38:01;;;;;;;14.38;5.45;;;22.10;99.90;;;;;;4174236;28;20257;-76
2021/11/23 16:40:04;;;;;;;7.63;4.63;;;22.00;99.90;;;;;;4175449;28;20726;-77
2021/11/23 16:42:07;;;;;;;12.23;5.25;;;22.10;99.90;;;;;;4172473;28;20654;-76
2021/11/23 16:44:10;;;;;;;12.45;4.88;;;22.00;99.90;;;;;;4173174;28;20228;-77
2021/11/23 16:46:13;;;;;;;9.27;4.85;;;22.10;99.90;;;;;;4175321;28;20216;-75
2021/11/23 16:48:18;;;;;;;11.45;5.15;;;22.10;99.90;;;;;;4177048;28;20247;-76
2021/11/23 16:50:20;;;;;;;9.00;4.97;;;22.00;99.90;;;;;;4176094;28;20215;-76
2021/11/23 16:52:24;;;;;;;8.73;5.45;;;22.00;99.90;;;;;;4175576;28;20215;-76
2021/11/23 16:54:29;;;;;;;10.38;5.18;;;22.10;99.90;;;;;;4172030;28;20215;-75
2021/11/23 16:56:31;;;;;;;11.98;5.20;;;22.10;99.90;;;;;;4172456;28;20265;-75
2021/11/23 16:58:34;;;;;;;10.40;5.82;;;22.10;99.90;;;;;;4174529;28;20627;-77
2021/11/23 17:00:37;;;;;;;13.60;6.70;;;22.10;99.90;;;;;;4176909;28;21278;-77
2021/11/23 17:02:39;;;;;;;14.15;6.60;;;22.00;99.90;;;;;;4176734;28;20265;-78
2021/11/23 17:04:43;;;;;;;12.60;5.85;;;21.90;99.90;;;;;;4174014;28;20224;-76
2021/11/23 17:06:49;;;;;;;13.75;6.32;;;22.00;99.90;;;;;;4176302;28;20277;-76
2021/11/23 17:08:52;;;;;;;8.60;4.97;;;22.00;99.90;;;;;;4182655;28;20277;-76
2021/11/23 17:10:55;;;;;;;11.05;5.07;;;22.00;99.90;;;;;;4177006;28;20270;-76
2021/11/23 17:12:57;;;;;;;9.57;5.32;;;21.90;99.90;;;;;;4177699;28;20215;-77
2021/11/23 17:15:00;;;;;;;13.10;5.20;;;22.00;99.90;;;;;;4178287;28;20211;-77
2021/11/23 17:17:02;;;;;;;13.07;5.80;;;21.90;99.90;;;;;;4179350;28;20266;-76
2021/11/23 17:19:04;;;;;;;9.38;5.35;;;21.90;99.90;;;;;;4177970;28;20235;-77
2021/11/23 17:21:08;;;;;;;9.57;5.00;;;21.90;99.90;;;;;;4178060;28;20258;-76
2021/11/23 17:23:12;;;;;;;8.90;5.35;;;21.90;99.90;;;;;;4178251;28;20724;-76
2021/11/23 17:25:15;;;;;;;9.85;5.60;;;21.80;99.90;;;;;;4176879;28;20233;-76
2021/11/23 17:27:17;;;;;;;8.90;4.93;;;21.90;99.90;;;;;;4180583;28;20304;-76
2021/11/23 17:29:21;;;;;;;8.73;5.35;;;21.90;99.90;;;;;;4194311;28;20203;-76
2021/11/23 17:31:23;;;;;;;8.93;5.10;;;21.80;99.90;;;;;;4179372;28;20211;-76
2021/11/23 17:33:25;;;;;;;9.10;5.35;;;21.90;99.90;;;;;;4178314;28;20338;-76
2021/11/23 17:35:28;;;;;;;10.98;5.85;;;21.80;99.90;;;;;;4193886;28;20215;-76
2021/11/23 17:37:31;;;;;;;8.65;5.53;;;21.80;99.90;;;;;;4173730;28;20208;-76
2021/11/23 17:39:35;;;;;;;13.82;5.10;;;21.80;99.90;;;;;;4180545;28;20219;-76
2021/11/23 17:41:38;;;;;;;13.32;5.57;;;21.80;99.90;;;;;;4193938;28;20304;-76
2021/11/23 17:43:40;;;;;;;8.02;4.72;;;21.80;99.90;;;;;;4190722;28;20219;-77
2021/11/23 17:45:43;;;;;;;13.13;5.32;;;21.80;99.90;;;;;;4196479;28;20214;-77
2021/11/23 17:47:46;;;;;;;9.75;5.72;;;21.80;99.90;;;;;;4192826;28;20244;-76
2021/11/23 17:49:49;;;;;;;8.90;4.82;;;21.80;99.90;;;;;;4181182;28;20243;-76
2021/11/23 17:51:51;;;;;;;9.45;5.53;;;21.70;99.90;;;;;;4181520;28;20729;-76
2021/11/23 17:53:55;;;;;;;10.80;5.32;;;21.80;99.90;;;;;;4179732;28;20265;-76
2021/11/23 17:55:57;;;;;;;8.25;5.03;;;21.70;99.90;;;;;;4179069;28;20215;-76
2021/11/23 17:58:01;;;;;;;8.43;4.60;;;21.70;99.90;;;;;;4181536;28;20281;-76
2021/11/23 18:00:08;;;;;;;8.55;5.15;;;21.80;99.90;;;;;;4180319;28;20265;-76
2021/11/23 18:02:11;;;;;;;11.65;5.10;;;21.80;99.90;;;;;;4182158;28;20223;-76
2021/11/23 18:04:14;;;;;;;8.70;5.25;;;21.80;99.90;;;;;;4187009;28;21072;-76
2021/11/23 18:06:16;;;;;;;7.97;5.20;;;21.70;99.90;;;;;;4181143;28;20273;-76
2021/11/23 18:08:18;;;;;;;8.95;5.18;;;21.70;99.90;;;;;;4181458;28;20289;-77
2021/11/23 18:10:25;;;;;;;9.50;5.55;;;21.70;99.90;;;;;;4195774;28;20222;-76
2021/11/23 18:12:28;;;;;;;8.23;5.15;;;21.70;99.90;;;;;;4184801;28;20211;-77
2021/11/23 18:14:30;;;;;;;7.25;4.90;;;21.70;99.90;;;;;;4179794;28;20262;-76
2021/11/23 18:16:33;;;;;;;7.28;4.63;;;21.70;99.90;;;;;;4179217;28;21087;-74
2021/11/23 18:18:37;;;;;;;8.07;5.25;;;21.70;99.90;;;;;;4195843;28;20211;-76
2021/11/23 18:20:44;;;;;;;7.55;4.85;;;21.70;99.90;;;;;;4197568;28;20218;-76
2021/11/23 18:22:47;;;;;;;6.90;4.93;;;21.60;99.90;;;;;;4193502;28;20247;-76
2021/11/23 18:24:49;;;;;;;7.53;5.32;;;21.60;99.90;;;;;;4196930;28;20265;-76
2021/11/23 18:26:53;;;;;;;8.68;5.03;;;21.50;99.90;;;;;;4196892;28;20284;-77
2021/11/23 18:28:55;;;;;;;10.50;5.57;;;21.50;99.90;;;;;;4183075;28;20240;-76
2021/11/23 18:30:58;;;;;;;9.63;5.18;;;21.50;99.90;;;;;;4180099;28;20216;-76
2021/11/23 18:33:01;;;;;;;8.98;5.05;;;21.40;99.90;;;;;;4178213;28;20267;-77
2021/11/23 18:35:04;;;;;;;7.78;4.93;;;21.40;99.90;;;;;;4175391;28;20220;-76
2021/11/23 18:37:08;;;;;;;7.82;4.68;;;21.40;99.90;;;;;;4179328;28;20238;-77
2021/11/23 18:39:11;;;;;;;7.68;5.35;;;21.40;99.90;;;;;;4193646;28;20710;-76
2021/11/23 18:41:15;;;;;;;9.23;5.35;;;21.40;99.90;;;;;;4180243;28;20277;-76
2021/11/23 18:43:20;;;;;;;9.93;5.45;;;21.30;99.90;;;;;;4180403;28;20224;-76
2021/11/23 18:45:22;;;;;;;9.93;5.85;;;21.30;99.90;;;;;;4196118;28;20332;-77
2021/11/23 18:47:24;;;;;;;8.73;5.47;;;21.30;99.90;;;;;;4196708;28;20766;-77